sensor_id;sensor_type;location;lat;lon;timestamp;P1;durP1;ratioP1;P2;durP2;ratioP2
79747;SDS011;69232;47.488;19.268;2023-07-13T00:01:43;11.55;;;4.35;;
79747;SDS011;69232;47.488;19.268;2023-07-13T00:04:08;11.35;;;4.95;;
79747;SDS011;69232;47.488;19.268;2023-07-13T00:06:34;11.70;;;4.20;;
79747;SDS011;69232;47.488;19.268;2023-07-13T00:09:00;13.07;;;6.40;;
79747;SDS011;69232;47.488;19.268;2023-07-13T00:11:26;8.48;;;4.00;;
79747;SDS011;69232;47.488;19.268;2023-07-13T00:13:52;5.78;;;3.55;;
79747;SDS011;69232;47.488;19.268;2023-07-13T00:16:18;6.15;;;3.45;;
79747;SDS011;69232;47.488;19.268;2023-07-13T00:18:44;6.82;;;3.85;;
79747;SDS011;69232;47.488;19.268;2023-07-13T00:21:10;7.47;;;3.88;;
79747;SDS011;69232;47.488;19.268;2023-07-13T00:23:36;7.32;;;3.38;;
79747;SDS011;69232;47.488;19.268;2023-07-13T00:26:03;8.02;;;4.13;;
79747;SDS011;69232;47.488;19.268;2023-07-13T00:28:30;7.13;;;3.55;;
79747;SDS011;69232;47.488;19.268;2023-07-13T00:30:55;10.93;;;3.70;;
79747;SDS011;69232;47.488;19.268;2023-07-13T00:33:21;7.28;;;4.07;;
79747;SDS011;69232;47.488;19.268;2023-07-13T00:35:48;11.65;;;3.40;;
79747;SDS011;69232;47.488;19.268;2023-07-13T00:38:13;9.52;;;3.63;;
79747;SDS011;69232;47.488;19.268;2023-07-13T00:40:39;9.00;;;3.75;;
79747;SDS011;69232;47.488;19.268;2023-07-13T00:43:09;7.97;;;3.78;;
79747;SDS011;69232;47.488;19.268;2023-07-13T00:48:02;6.10;;;3.22;;
79747;SDS011;69232;47.488;19.268;2023-07-13T00:50:28;6.80;;;2.80;;
79747;SDS011;69232;47.488;19.268;2023-07-13T00:52:53;6.70;;;3.10;;
79747;SDS011;69232;47.488;19.268;2023-07-13T00:55:22;6.78;;;3.45;;
79747;SDS011;69232;47.488;19.268;2023-07-13T00:57:49;5.68;;;3.25;;
79747;SDS011;69232;47.488;19.268;2023-07-13T01:00:14;8.30;;;3.53;;
79747;SDS011;69232;47.488;19.268;2023-07-13T01:02:41;5.70;;;3.00;;
79747;SDS011;69232;47.488;19.268;2023-07-13T01:05:09;8.05;;;3.78;;
79747;SDS011;69232;47.488;19.268;2023-07-13T01:07:35;5.47;;;3.25;;
79747;SDS011;69232;47.488;19.268;2023-07-13T01:10:02;5.38;;;3.03;;
79747;SDS011;69232;47.488;19.268;2023-07-13T01:12:28;7.00;;;3.10;;
79747;SDS011;69232;47.488;19.268;2023-07-13T01:15:00;6.38;;;2.95;;
79747;SDS011;69232;47.488;19.268;2023-07-13T01:17:26;5.63;;;3.13;;
79747;SDS011;69232;47.488;19.268;2023-07-13T01:19:53;7.75;;;2.78;;
79747;SDS011;69232;47.488;19.268;2023-07-13T01:22:19;7.30;;;3.45;;
79747;SDS011;69232;47.488;19.268;2023-07-13T01:24:45;6.55;;;3.38;;
79747;SDS011;69232;47.488;19.268;2023-07-13T01:27:12;6.07;;;3.03;;
79747;SDS011;69232;47.488;19.268;2023-07-13T01:29:40;6.25;;;3.05;;
79747;SDS011;69232;47.488;19.268;2023-07-13T01:32:10;8.23;;;3.40;;
79747;SDS011;69232;47.488;19.268;2023-07-13T01:34:39;7.80;;;3.33;;
79747;SDS011;69232;47.488;19.268;2023-07-13T01:37:07;4.50;;;3.15;;
79747;SDS011;69232;47.488;19.268;2023-07-13T01:39:35;4.80;;;3.10;;
79747;SDS011;69232;47.488;19.268;2023-07-13T01:42:01;9.73;;;3.42;;
79747;SDS011;69232;47.488;19.268;2023-07-13T01:44:26;6.68;;;3.55;;
79747;SDS011;69232;47.488;19.268;2023-07-13T01:46:51;7.97;;;3.58;;
79747;SDS011;69232;47.488;19.268;2023-07-13T01:49:17;10.23;;;4.15;;
79747;SDS011;69232;47.488;19.268;2023-07-13T01:51:42;9.98;;;3.53;;
79747;SDS011;69232;47.488;19.268;2023-07-13T01:54:08;5.57;;;3.35;;
79747;SDS011;69232;47.488;19.268;2023-07-13T01:56:33;5.80;;;2.75;;
79747;SDS011;69232;47.488;19.268;2023-07-13T01:58:59;4.03;;;3.05;;
79747;SDS011;69232;47.488;19.268;2023-07-13T02:01:24;4.90;;;2.85;;
79747;SDS011;69232;47.488;19.268;2023-07-13T02:03:50;5.60;;;3.40;;
79747;SDS011;69232;47.488;19.268;2023-07-13T02:06:15;6.82;;;3.50;;
79747;SDS011;69232;47.488;19.268;2023-07-13T02:08:41;7.20;;;3.35;;
79747;SDS011;69232;47.488;19.268;2023-07-13T02:11:07;4.90;;;3.05;;
79747;SDS011;69232;47.488;19.268;2023-07-13T02:13:33;5.70;;;3.28;;
79747;SDS011;69232;47.488;19.268;2023-07-13T02:15:58;4.93;;;3.20;;
79747;SDS011;69232;47.488;19.268;2023-07-13T02:18:23;5.30;;;3.00;;
79747;SDS011;69232;47.488;19.268;2023-07-13T02:20:49;6.38;;;3.05;;
79747;SDS011;69232;47.488;19.268;2023-07-13T02:23:14;6.50;;;3.10;;
79747;SDS011;69232;47.488;19.268;2023-07-13T02:25:40;6.50;;;2.67;;
79747;SDS011;69232;47.488;19.268;2023-07-13T02:28:06;9.18;;;3.22;;
79747;SDS011;69232;47.488;19.268;2023-07-13T02:30:33;7.60;;;3.47;;
79747;SDS011;69232;47.488;19.268;2023-07-13T02:32:59;5.65;;;2.95;;
79747;SDS011;69232;47.488;19.268;2023-07-13T02:35:25;6.90;;;2.83;;
79747;SDS011;69232;47.488;19.268;2023-07-13T02:37:50;5.20;;;3.35;;
79747;SDS011;69232;47.488;19.268;2023-07-13T02:40:15;5.50;;;3.35;;
79747;SDS011;69232;47.488;19.268;2023-07-13T02:42:41;5.50;;;3.00;;
79747;SDS011;69232;47.488;19.268;2023-07-13T02:45:07;5.82;;;2.72;;
79747;SDS011;69232;47.488;19.268;2023-07-13T02:47:33;7.15;;;3.17;;
79747;SDS011;69232;47.488;19.268;2023-07-13T02:49:58;4.45;;;2.80;;
79747;SDS011;69232;47.488;19.268;2023-07-13T02:52:24;7.43;;;2.70;;
79747;SDS011;69232;47.488;19.268;2023-07-13T02:54:50;5.32;;;2.63;;
79747;SDS011;69232;47.488;19.268;2023-07-13T02:57:15;7.47;;;3.03;;
79747;SDS011;69232;47.488;19.268;2023-07-13T02:59:41;7.93;;;2.70;;
79747;SDS011;69232;47.488;19.268;2023-07-13T03:02:06;11.90;;;2.97;;
79747;SDS011;69232;47.488;19.268;2023-07-13T03:04:32;4.00;;;2.72;;
79747;SDS011;69232;47.488;19.268;2023-07-13T03:06:58;7.85;;;3.33;;
79747;SDS011;69232;47.488;19.268;2023-07-13T03:09:24;5.18;;;2.90;;
79747;SDS011;69232;47.488;19.268;2023-07-13T03:11:52;5.43;;;3.08;;
79747;SDS011;69232;47.488;19.268;2023-07-13T03:14:21;5.13;;;2.65;;
79747;SDS011;69232;47.488;19.268;2023-07-13T03:16:47;5.10;;;2.80;;
79747;SDS011;69232;47.488;19.268;2023-07-13T03:19:12;5.80;;;3.40;;
79747;SDS011;69232;47.488;19.268;2023-07-13T03:21:38;5.40;;;2.90;;
79747;SDS011;69232;47.488;19.268;2023-07-13T03:24:03;7.70;;;3.22;;
79747;SDS011;69232;47.488;19.268;2023-07-13T03:26:29;7.13;;;3.15;;
79747;SDS011;69232;47.488;19.268;2023-07-13T03:28:54;7.20;;;3.15;;
79747;SDS011;69232;47.488;19.268;2023-07-13T03:31:21;5.75;;;2.90;;
79747;SDS011;69232;47.488;19.268;2023-07-13T03:33:48;5.32;;;2.72;;
79747;SDS011;69232;47.488;19.268;2023-07-13T03:36:19;5.72;;;3.00;;
79747;SDS011;69232;47.488;19.268;2023-07-13T03:38:48;6.80;;;3.20;;
79747;SDS011;69232;47.488;19.268;2023-07-13T03:41:15;4.13;;;2.78;;
79747;SDS011;69232;47.488;19.268;2023-07-13T03:43:41;4.55;;;2.67;;
79747;SDS011;69232;47.488;19.268;2023-07-13T03:46:07;4.10;;;2.20;;
79747;SDS011;69232;47.488;19.268;2023-07-13T03:48:32;4.82;;;2.72;;
79747;SDS011;69232;47.488;19.268;2023-07-13T03:50:58;4.28;;;2.80;;
79747;SDS011;69232;47.488;19.268;2023-07-13T03:53:23;5.32;;;2.42;;
79747;SDS011;69232;47.488;19.268;2023-07-13T03:55:48;9.80;;;3.17;;
79747;SDS011;69232;47.488;19.268;2023-07-13T03:58:28;6.47;;;3.08;;
79747;SDS011;69232;47.488;19.268;2023-07-13T04:00:55;6.28;;;2.60;;
79747;SDS011;69232;47.488;19.268;2023-07-13T04:03:22;6.38;;;2.83;;
79747;SDS011;69232;47.488;19.268;2023-07-13T04:05:48;5.00;;;2.88;;
79747;SDS011;69232;47.488;19.268;2023-07-13T04:08:13;5.60;;;2.60;;
79747;SDS011;69232;47.488;19.268;2023-07-13T04:10:38;4.07;;;2.67;;
79747;SDS011;69232;47.488;19.268;2023-07-13T04:13:04;6.40;;;3.00;;
79747;SDS011;69232;47.488;19.268;2023-07-13T04:15:30;4.03;;;2.63;;
79747;SDS011;69232;47.488;19.268;2023-07-13T04:17:56;10.15;;;3.55;;
79747;SDS011;69232;47.488;19.268;2023-07-13T04:20:22;8.38;;;3.55;;
79747;SDS011;69232;47.488;19.268;2023-07-13T04:22:49;6.47;;;3.80;;
79747;SDS011;69232;47.488;19.268;2023-07-13T04:25:14;7.43;;;3.22;;
79747;SDS011;69232;47.488;19.268;2023-07-13T04:27:40;7.55;;;3.22;;
79747;SDS011;69232;47.488;19.268;2023-07-13T04:30:05;7.78;;;2.90;;
79747;SDS011;69232;47.488;19.268;2023-07-13T04:32:31;7.25;;;3.15;;
79747;SDS011;69232;47.488;19.268;2023-07-13T04:34:57;11.52;;;3.58;;
79747;SDS011;69232;47.488;19.268;2023-07-13T04:37:24;4.65;;;3.30;;
79747;SDS011;69232;47.488;19.268;2023-07-13T04:39:50;6.78;;;2.50;;
79747;SDS011;69232;47.488;19.268;2023-07-13T04:42:16;5.63;;;3.05;;
79747;SDS011;69232;47.488;19.268;2023-07-13T04:44:41;5.60;;;2.78;;
79747;SDS011;69232;47.488;19.268;2023-07-13T04:47:07;6.05;;;2.47;;
79747;SDS011;69232;47.488;19.268;2023-07-13T04:49:32;10.63;;;2.88;;
79747;SDS011;69232;47.488;19.268;2023-07-13T04:51:57;9.68;;;2.92;;
79747;SDS011;69232;47.488;19.268;2023-07-13T04:54:23;5.72;;;3.00;;
79747;SDS011;69232;47.488;19.268;2023-07-13T04:56:48;7.35;;;3.75;;
79747;SDS011;69232;47.488;19.268;2023-07-13T04:59:14;4.68;;;3.17;;
79747;SDS011;69232;47.488;19.268;2023-07-13T05:01:39;9.23;;;2.97;;
79747;SDS011;69232;47.488;19.268;2023-07-13T05:04:05;10.60;;;3.28;;
79747;SDS011;69232;47.488;19.268;2023-07-13T05:06:31;8.00;;;3.25;;
79747;SDS011;69232;47.488;19.268;2023-07-13T05:08:56;6.57;;;2.92;;
79747;SDS011;69232;47.488;19.268;2023-07-13T05:11:22;5.57;;;3.20;;
79747;SDS011;69232;47.488;19.268;2023-07-13T05:13:48;8.75;;;3.58;;
79747;SDS011;69232;47.488;19.268;2023-07-13T05:16:13;9.20;;;3.70;;
79747;SDS011;69232;47.488;19.268;2023-07-13T05:18:38;7.70;;;3.97;;
79747;SDS011;69232;47.488;19.268;2023-07-13T05:21:06;12.25;;;4.60;;
79747;SDS011;69232;47.488;19.268;2023-07-13T05:23:33;9.00;;;4.47;;
79747;SDS011;69232;47.488;19.268;2023-07-13T05:25:59;13.10;;;4.70;;
79747;SDS011;69232;47.488;19.268;2023-07-13T05:28:25;14.05;;;5.72;;
79747;SDS011;69232;47.488;19.268;2023-07-13T05:30:51;13.63;;;4.65;;
79747;SDS011;69232;47.488;19.268;2023-07-13T05:33:18;7.78;;;4.32;;
79747;SDS011;69232;47.488;19.268;2023-07-13T05:35:44;11.80;;;4.10;;
79747;SDS011;69232;47.488;19.268;2023-07-13T05:38:09;7.63;;;3.58;;
79747;SDS011;69232;47.488;19.268;2023-07-13T05:40:35;7.07;;;2.97;;
79747;SDS011;69232;47.488;19.268;2023-07-13T05:43:01;5.70;;;2.70;;
79747;SDS011;69232;47.488;19.268;2023-07-13T05:45:27;3.83;;;2.45;;
79747;SDS011;69232;47.488;19.268;2023-07-13T05:47:52;11.85;;;6.38;;
79747;SDS011;69232;47.488;19.268;2023-07-13T05:50:18;6.85;;;4.18;;
79747;SDS011;69232;47.488;19.268;2023-07-13T05:52:43;5.75;;;3.92;;
79747;SDS011;69232;47.488;19.268;2023-07-13T05:55:08;4.88;;;2.20;;
79747;SDS011;69232;47.488;19.268;2023-07-13T05:57:34;4.18;;;2.50;;
79747;SDS011;69232;47.488;19.268;2023-07-13T05:59:59;2.17;;;1.80;;
79747;SDS011;69232;47.488;19.268;2023-07-13T06:02:25;4.55;;;2.58;;
79747;SDS011;69232;47.488;19.268;2023-07-13T06:04:51;4.07;;;2.33;;
79747;SDS011;69232;47.488;19.268;2023-07-13T06:07:17;3.50;;;2.00;;
79747;SDS011;69232;47.488;19.268;2023-07-13T06:09:42;5.07;;;1.80;;
79747;SDS011;69232;47.488;19.268;2023-07-13T06:12:08;5.38;;;2.22;;
79747;SDS011;69232;47.488;19.268;2023-07-13T06:14:34;3.08;;;1.88;;
79747;SDS011;69232;47.488;19.268;2023-07-13T06:16:59;4.75;;;1.75;;
79747;SDS011;69232;47.488;19.268;2023-07-13T06:19:25;2.97;;;1.88;;
79747;SDS011;69232;47.488;19.268;2023-07-13T06:21:50;7.85;;;2.63;;
79747;SDS011;69232;47.488;19.268;2023-07-13T06:24:15;6.72;;;2.22;;
79747;SDS011;69232;47.488;19.268;2023-07-13T06:26:41;2.40;;;1.70;;
79747;SDS011;69232;47.488;19.268;2023-07-13T06:29:06;2.70;;;1.92;;
79747;SDS011;69232;47.488;19.268;2023-07-13T06:31:31;2.70;;;2.10;;
79747;SDS011;69232;47.488;19.268;2023-07-13T06:33:57;2.95;;;1.40;;
79747;SDS011;69232;47.488;19.268;2023-07-13T06:36:22;2.75;;;1.70;;
79747;SDS011;69232;47.488;19.268;2023-07-13T06:38:48;2.45;;;1.52;;
79747;SDS011;69232;47.488;19.268;2023-07-13T06:41:13;4.18;;;1.80;;
79747;SDS011;69232;47.488;19.268;2023-07-13T06:43:38;2.35;;;1.65;;
79747;SDS011;69232;47.488;19.268;2023-07-13T06:46:04;2.83;;;1.63;;
79747;SDS011;69232;47.488;19.268;2023-07-13T06:48:29;3.17;;;1.60;;
79747;SDS011;69232;47.488;19.268;2023-07-13T06:50:55;2.78;;;1.80;;
79747;SDS011;69232;47.488;19.268;2023-07-13T06:53:21;2.53;;;1.67;;
79747;SDS011;69232;47.488;19.268;2023-07-13T06:55:47;5.03;;;1.60;;
79747;SDS011;69232;47.488;19.268;2023-07-13T06:58:14;1.95;;;1.40;;
79747;SDS011;69232;47.488;19.268;2023-07-13T07:00:40;3.08;;;1.83;;
79747;SDS011;69232;47.488;19.268;2023-07-13T07:03:05;3.65;;;1.70;;
79747;SDS011;69232;47.488;19.268;2023-07-13T07:05:31;3.58;;;1.70;;
79747;SDS011;69232;47.488;19.268;2023-07-13T07:07:58;3.92;;;1.90;;
79747;SDS011;69232;47.488;19.268;2023-07-13T07:10:23;4.82;;;1.95;;
79747;SDS011;69232;47.488;19.268;2023-07-13T07:12:49;3.60;;;1.90;;
79747;SDS011;69232;47.488;19.268;2023-07-13T07:15:15;4.78;;;1.98;;
79747;SDS011;69232;47.488;19.268;2023-07-13T07:17:41;3.15;;;1.58;;
79747;SDS011;69232;47.488;19.268;2023-07-13T07:20:06;5.22;;;2.63;;
79747;SDS011;69232;47.488;19.268;2023-07-13T07:22:32;3.20;;;1.60;;
79747;SDS011;69232;47.488;19.268;2023-07-13T07:24:58;5.63;;;1.80;;
79747;SDS011;69232;47.488;19.268;2023-07-13T07:27:23;4.57;;;1.73;;
79747;SDS011;69232;47.488;19.268;2023-07-13T07:29:49;3.20;;;2.05;;
79747;SDS011;69232;47.488;19.268;2023-07-13T07:32:15;3.63;;;2.00;;
79747;SDS011;69232;47.488;19.268;2023-07-13T07:34:40;3.20;;;1.67;;
79747;SDS011;69232;47.488;19.268;2023-07-13T07:37:05;2.58;;;2.03;;
79747;SDS011;69232;47.488;19.268;2023-07-13T07:39:31;2.38;;;1.95;;
79747;SDS011;69232;47.488;19.268;2023-07-13T07:41:57;4.30;;;2.55;;
79747;SDS011;69232;47.488;19.268;2023-07-13T07:44:22;3.38;;;2.05;;
79747;SDS011;69232;47.488;19.268;2023-07-13T07:46:48;3.15;;;1.65;;
79747;SDS011;69232;47.488;19.268;2023-07-13T07:49:14;5.93;;;1.75;;
79747;SDS011;69232;47.488;19.268;2023-07-13T07:51:39;2.80;;;2.03;;
79747;SDS011;69232;47.488;19.268;2023-07-13T07:54:05;2.22;;;1.63;;
79747;SDS011;69232;47.488;19.268;2023-07-13T07:56:31;3.38;;;1.73;;
79747;SDS011;69232;47.488;19.268;2023-07-13T07:58:57;2.60;;;1.80;;
79747;SDS011;69232;47.488;19.268;2023-07-13T08:01:22;4.07;;;1.85;;
79747;SDS011;69232;47.488;19.268;2023-07-13T08:03:48;4.53;;;1.58;;
79747;SDS011;69232;47.488;19.268;2023-07-13T08:06:13;7.40;;;2.15;;
79747;SDS011;69232;47.488;19.268;2023-07-13T08:08:39;4.45;;;2.30;;
79747;SDS011;69232;47.488;19.268;2023-07-13T08:11:05;4.25;;;1.75;;
79747;SDS011;69232;47.488;19.268;2023-07-13T08:13:32;2.72;;;2.30;;
79747;SDS011;69232;47.488;19.268;2023-07-13T08:15:57;3.13;;;2.00;;
79747;SDS011;69232;47.488;19.268;2023-07-13T08:18:24;2.20;;;1.90;;
79747;SDS011;69232;47.488;19.268;2023-07-13T08:20:49;3.45;;;2.35;;
79747;SDS011;69232;47.488;19.268;2023-07-13T08:23:15;5.13;;;1.80;;
79747;SDS011;69232;47.488;19.268;2023-07-13T08:25:41;3.75;;;2.15;;
79747;SDS011;69232;47.488;19.268;2023-07-13T08:28:07;2.25;;;1.80;;
79747;SDS011;69232;47.488;19.268;2023-07-13T08:30:32;3.00;;;1.85;;
79747;SDS011;69232;47.488;19.268;2023-07-13T08:32:58;4.30;;;2.20;;
79747;SDS011;69232;47.488;19.268;2023-07-13T08:35:23;4.82;;;2.10;;
79747;SDS011;69232;47.488;19.268;2023-07-13T08:37:50;2.08;;;1.50;;
79747;SDS011;69232;47.488;19.268;2023-07-13T08:40:24;4.30;;;1.73;;
79747;SDS011;69232;47.488;19.268;2023-07-13T08:42:54;3.17;;;1.95;;
79747;SDS011;69232;47.488;19.268;2023-07-13T08:48:15;4.65;;;1.70;;
79747;SDS011;69232;47.488;19.268;2023-07-13T08:53:37;4.32;;;2.10;;
79747;SDS011;69232;47.488;19.268;2023-07-13T08:56:05;4.85;;;1.95;;
79747;SDS011;69232;47.488;19.268;2023-07-13T08:58:36;3.08;;;1.95;;
79747;SDS011;69232;47.488;19.268;2023-07-13T09:03:50;3.22;;;1.92;;
79747;SDS011;69232;47.488;19.268;2023-07-13T09:06:26;2.13;;;1.92;;
79747;SDS011;69232;47.488;19.268;2023-07-13T09:08:58;4.15;;;2.00;;
79747;SDS011;69232;47.488;19.268;2023-07-13T09:11:33;2.65;;;1.88;;
79747;SDS011;69232;47.488;19.268;2023-07-13T09:16:52;3.28;;;1.95;;
79747;SDS011;69232;47.488;19.268;2023-07-13T09:19:21;7.28;;;2.42;;
79747;SDS011;69232;47.488;19.268;2023-07-13T09:21:51;4.65;;;3.25;;
79747;SDS011;69232;47.488;19.268;2023-07-13T09:26:46;5.65;;;2.25;;
79747;SDS011;69232;47.488;19.268;2023-07-13T09:29:14;4.15;;;1.98;;
79747;SDS011;69232;47.488;19.268;2023-07-13T09:31:45;3.55;;;2.03;;
79747;SDS011;69232;47.488;19.268;2023-07-13T09:34:14;6.25;;;2.30;;
79747;SDS011;69232;47.488;19.268;2023-07-13T09:36:40;7.60;;;2.10;;
79747;SDS011;69232;47.488;19.268;2023-07-13T09:42:17;5.10;;;2.13;;
79747;SDS011;69232;47.488;19.268;2023-07-13T09:47:00;3.10;;;2.03;;
79747;SDS011;69232;47.488;19.268;2023-07-13T09:49:28;3.38;;;2.40;;
79747;SDS011;69232;47.488;19.268;2023-07-13T09:52:10;4.07;;;2.50;;
79747;SDS011;69232;47.488;19.268;2023-07-13T09:54:37;5.03;;;2.20;;
79747;SDS011;69232;47.488;19.268;2023-07-13T09:57:08;3.30;;;2.10;;
79747;SDS011;69232;47.488;19.268;2023-07-13T09:59:42;4.28;;;2.28;;
79747;SDS011;69232;47.488;19.268;2023-07-13T10:02:31;4.50;;;2.05;;
79747;SDS011;69232;47.488;19.268;2023-07-13T10:05:11;6.00;;;2.17;;
79747;SDS011;69232;47.488;19.268;2023-07-13T10:07:39;3.78;;;2.67;;
79747;SDS011;69232;47.488;19.268;2023-07-13T10:12:46;5.57;;;1.92;;
79747;SDS011;69232;47.488;19.268;2023-07-13T10:15:16;3.83;;;2.10;;
79747;SDS011;69232;47.488;19.268;2023-07-13T10:17:43;3.05;;;2.10;;
79747;SDS011;69232;47.488;19.268;2023-07-13T10:20:09;7.05;;;2.20;;
79747;SDS011;69232;47.488;19.268;2023-07-13T10:25:32;4.15;;;2.33;;
79747;SDS011;69232;47.488;19.268;2023-07-13T10:28:00;4.30;;;2.85;;
79747;SDS011;69232;47.488;19.268;2023-07-13T10:30:31;3.75;;;2.40;;
79747;SDS011;69232;47.488;19.268;2023-07-13T10:33:00;3.15;;;2.80;;
79747;SDS011;69232;47.488;19.268;2023-07-13T10:35:28;4.82;;;2.20;;
79747;SDS011;69232;47.488;19.268;2023-07-13T10:38:01;7.32;;;2.53;;
79747;SDS011;69232;47.488;19.268;2023-07-13T10:40:41;3.88;;;2.28;;
79747;SDS011;69232;47.488;19.268;2023-07-13T10:43:16;2.88;;;2.05;;
79747;SDS011;69232;47.488;19.268;2023-07-13T10:45:45;3.97;;;2.35;;
79747;SDS011;69232;47.488;19.268;2023-07-13T10:48:13;5.32;;;2.70;;
79747;SDS011;69232;47.488;19.268;2023-07-13T10:50:40;3.72;;;2.33;;
79747;SDS011;69232;47.488;19.268;2023-07-13T10:58:21;4.22;;;2.30;;
79747;SDS011;69232;47.488;19.268;2023-07-13T11:01:14;3.20;;;2.03;;
79747;SDS011;69232;47.488;19.268;2023-07-13T11:03:50;2.90;;;2.28;;
79747;SDS011;69232;47.488;19.268;2023-07-13T11:06:30;4.47;;;2.20;;
79747;SDS011;69232;47.488;19.268;2023-07-13T11:19:54;3.67;;;2.17;;
79747;SDS011;69232;47.488;19.268;2023-07-13T11:22:44;5.70;;;2.60;;
79747;SDS011;69232;47.488;19.268;2023-07-13T11:27:52;2.78;;;2.20;;
79747;SDS011;69232;47.488;19.268;2023-07-13T11:34:06;4.60;;;2.17;;
79747;SDS011;69232;47.488;19.268;2023-07-13T11:36:35;4.65;;;2.17;;
79747;SDS011;69232;47.488;19.268;2023-07-13T11:39:04;3.75;;;2.00;;
79747;SDS011;69232;47.488;19.268;2023-07-13T11:41:42;4.40;;;1.83;;
79747;SDS011;69232;47.488;19.268;2023-07-13T11:44:13;4.63;;;2.10;;
79747;SDS011;69232;47.488;19.268;2023-07-13T11:46:44;3.25;;;2.40;;
79747;SDS011;69232;47.488;19.268;2023-07-13T11:49:11;4.07;;;2.10;;
79747;SDS011;69232;47.488;19.268;2023-07-13T11:54:22;3.72;;;1.92;;
79747;SDS011;69232;47.488;19.268;2023-07-13T11:56:55;2.95;;;1.55;;
79747;SDS011;69232;47.488;19.268;2023-07-13T11:59:22;2.70;;;1.70;;
79747;SDS011;69232;47.488;19.268;2023-07-13T12:01:49;2.97;;;1.63;;
79747;SDS011;69232;47.488;19.268;2023-07-13T12:04:21;2.17;;;1.30;;
79747;SDS011;69232;47.488;19.268;2023-07-13T12:06:57;5.00;;;1.65;;
79747;SDS011;69232;47.488;19.268;2023-07-13T12:09:25;2.80;;;1.65;;
79747;SDS011;69232;47.488;19.268;2023-07-13T12:11:51;2.33;;;1.45;;
79747;SDS011;69232;47.488;19.268;2023-07-13T12:14:17;3.35;;;1.17;;
79747;SDS011;69232;47.488;19.268;2023-07-13T12:16:44;4.30;;;1.60;;
79747;SDS011;69232;47.488;19.268;2023-07-13T12:19:16;4.30;;;1.67;;
79747;SDS011;69232;47.488;19.268;2023-07-13T12:21:42;2.08;;;1.40;;
79747;SDS011;69232;47.488;19.268;2023-07-13T12:24:15;3.05;;;1.52;;
79747;SDS011;69232;47.488;19.268;2023-07-13T12:26:42;2.47;;;1.60;;
79747;SDS011;69232;47.488;19.268;2023-07-13T12:29:07;2.85;;;1.60;;
79747;SDS011;69232;47.488;19.268;2023-07-13T12:33:59;1.50;;;1.40;;
79747;SDS011;69232;47.488;19.268;2023-07-13T12:36:32;7.05;;;2.17;;
79747;SDS011;69232;47.488;19.268;2023-07-13T12:39:00;6.50;;;1.67;;
79747;SDS011;69232;47.488;19.268;2023-07-13T12:41:39;3.88;;;1.70;;
79747;SDS011;69232;47.488;19.268;2023-07-13T12:44:08;3.97;;;1.75;;
79747;SDS011;69232;47.488;19.268;2023-07-13T12:46:37;3.70;;;1.70;;
79747;SDS011;69232;47.488;19.268;2023-07-13T12:49:04;2.10;;;1.77;;
79747;SDS011;69232;47.488;19.268;2023-07-13T12:51:32;6.00;;;2.05;;
79747;SDS011;69232;47.488;19.268;2023-07-13T12:53:58;3.08;;;1.70;;
79747;SDS011;69232;47.488;19.268;2023-07-13T12:56:33;5.30;;;1.83;;
79747;SDS011;69232;47.488;19.268;2023-07-13T12:59:00;2.22;;;1.67;;
79747;SDS011;69232;47.488;19.268;2023-07-13T13:01:28;2.30;;;1.48;;
79747;SDS011;69232;47.488;19.268;2023-07-13T13:03:55;2.88;;;1.63;;
79747;SDS011;69232;47.488;19.268;2023-07-13T13:06:27;3.40;;;2.10;;
79747;SDS011;69232;47.488;19.268;2023-07-13T13:08:54;1.73;;;1.63;;
79747;SDS011;69232;47.488;19.268;2023-07-13T13:11:23;2.08;;;1.48;;
79747;SDS011;69232;47.488;19.268;2023-07-13T13:13:50;1.70;;;1.60;;
79747;SDS011;69232;47.488;19.268;2023-07-13T13:16:19;5.40;;;2.17;;
79747;SDS011;69232;47.488;19.268;2023-07-13T13:18:45;5.13;;;2.38;;
79747;SDS011;69232;47.488;19.268;2023-07-13T13:21:10;2.55;;;1.67;;
79747;SDS011;69232;47.488;19.268;2023-07-13T13:23:36;3.67;;;2.03;;
79747;SDS011;69232;47.488;19.268;2023-07-13T13:26:02;4.03;;;1.77;;
79747;SDS011;69232;47.488;19.268;2023-07-13T13:28:28;2.50;;;1.90;;
79747;SDS011;69232;47.488;19.268;2023-07-13T13:30:54;3.38;;;1.75;;
79747;SDS011;69232;47.488;19.268;2023-07-13T13:33:20;2.97;;;1.75;;
79747;SDS011;69232;47.488;19.268;2023-07-13T13:35:46;4.38;;;1.90;;
79747;SDS011;69232;47.488;19.268;2023-07-13T13:38:16;4.65;;;2.05;;
79747;SDS011;69232;47.488;19.268;2023-07-13T13:40:44;2.28;;;1.80;;
79747;SDS011;69232;47.488;19.268;2023-07-13T13:43:17;2.28;;;1.70;;
79747;SDS011;69232;47.488;19.268;2023-07-13T13:45:56;4.30;;;1.85;;
79747;SDS011;69232;47.488;19.268;2023-07-13T13:48:32;2.60;;;2.15;;
79747;SDS011;69232;47.488;19.268;2023-07-13T13:50:59;3.70;;;1.90;;
79747;SDS011;69232;47.488;19.268;2023-07-13T13:53:25;2.42;;;1.80;;
79747;SDS011;69232;47.488;19.268;2023-07-13T13:55:51;2.30;;;1.52;;
79747;SDS011;69232;47.488;19.268;2023-07-13T13:58:17;2.53;;;1.70;;
79747;SDS011;69232;47.488;19.268;2023-07-13T14:00:45;2.22;;;1.85;;
79747;SDS011;69232;47.488;19.268;2023-07-13T14:03:15;4.15;;;2.38;;
79747;SDS011;69232;47.488;19.268;2023-07-13T14:05:44;2.63;;;2.40;;
79747;SDS011;69232;47.488;19.268;2023-07-13T14:08:14;3.05;;;2.08;;
79747;SDS011;69232;47.488;19.268;2023-07-13T14:10:40;3.92;;;2.22;;
79747;SDS011;69232;47.488;19.268;2023-07-13T14:13:07;2.40;;;1.90;;
79747;SDS011;69232;47.488;19.268;2023-07-13T14:15:42;3.35;;;2.17;;
79747;SDS011;69232;47.488;19.268;2023-07-13T14:18:08;3.03;;;1.88;;
79747;SDS011;69232;47.488;19.268;2023-07-13T14:20:33;2.90;;;2.30;;
79747;SDS011;69232;47.488;19.268;2023-07-13T14:22:59;2.38;;;1.80;;
79747;SDS011;69232;47.488;19.268;2023-07-13T14:25:24;5.25;;;2.28;;
79747;SDS011;69232;47.488;19.268;2023-07-13T14:27:53;4.43;;;2.25;;
79747;SDS011;69232;47.488;19.268;2023-07-13T14:30:22;2.70;;;1.98;;
79747;SDS011;69232;47.488;19.268;2023-07-13T14:32:48;3.22;;;2.08;;
79747;SDS011;69232;47.488;19.268;2023-07-13T14:35:15;3.40;;;2.20;;
79747;SDS011;69232;47.488;19.268;2023-07-13T14:37:41;3.35;;;1.80;;
79747;SDS011;69232;47.488;19.268;2023-07-13T14:40:21;4.55;;;2.25;;
79747;SDS011;69232;47.488;19.268;2023-07-13T14:42:50;4.60;;;2.15;;
79747;SDS011;69232;47.488;19.268;2023-07-13T14:45:17;2.60;;;2.00;;
79747;SDS011;69232;47.488;19.268;2023-07-13T14:47:44;4.53;;;2.50;;
79747;SDS011;69232;47.488;19.268;2023-07-13T14:50:20;4.65;;;2.30;;
79747;SDS011;69232;47.488;19.268;2023-07-13T14:52:49;4.60;;;2.40;;
79747;SDS011;69232;47.488;19.268;2023-07-13T14:55:15;2.63;;;1.90;;
79747;SDS011;69232;47.488;19.268;2023-07-13T14:57:42;4.18;;;2.50;;
79747;SDS011;69232;47.488;19.268;2023-07-13T15:00:14;5.32;;;2.88;;
79747;SDS011;69232;47.488;19.268;2023-07-13T15:02:41;4.20;;;2.17;;
79747;SDS011;69232;47.488;19.268;2023-07-13T15:05:18;2.70;;;1.75;;
79747;SDS011;69232;47.488;19.268;2023-07-13T15:07:45;3.05;;;2.42;;
79747;SDS011;69232;47.488;19.268;2023-07-13T15:10:14;10.13;;;2.28;;
79747;SDS011;69232;47.488;19.268;2023-07-13T15:12:41;3.13;;;1.98;;
79747;SDS011;69232;47.488;19.268;2023-07-13T15:15:06;4.53;;;2.95;;
79747;SDS011;69232;47.488;19.268;2023-07-13T15:17:39;2.33;;;2.03;;
79747;SDS011;69232;47.488;19.268;2023-07-13T15:20:11;4.50;;;1.88;;
79747;SDS011;69232;47.488;19.268;2023-07-13T15:22:57;4.43;;;1.80;;
79747;SDS011;69232;47.488;19.268;2023-07-13T15:25:25;3.47;;;2.00;;
79747;SDS011;69232;47.488;19.268;2023-07-13T15:27:52;2.58;;;2.17;;
79747;SDS011;69232;47.488;19.268;2023-07-13T15:30:19;4.20;;;2.00;;